Main page
METAR-TAF:

METAR-TAF

Airports :

Augsburg Airport

Augsburg, Germany

latitude: 48-26N, longitude: 010-56E, elevation: 461 m

Current weather observation

The report was made 21 minutes ago, at 05:20 UTC
Wind 4 kt from the East/Northeast
Temperature 16°C
Humidity 94%
Pressure 1020 hPa
Visibility 10 km or more
no clouds below 1500 m and no cumulonimbus

METAR: EDMA 200520Z 06004KT CAVOK 16/15 Q1020

Time: 07:41 (05:41 UTC)

Forecast

The report was made 12 hours and 41 minutes ago, at 17:00 UTC
Forecast valid from 19 at 18 UTC to 19 at 24 UTC
Wind 5 kt from the North
Visibility 10 km or more
no clouds below 1500 m and no cumulonimbus

TAF: EDMA 191700Z 1918/1924 35005KT CAVOK

Weather observations and forecasts of more than 4000 airports (METAR and TAF reports).

The available stations are represented by yellow and red dots on the map.

Hover mouse over dot to see the name of the station.

Then click to see weather observations and forecasts.

To change the map : click on the green buttons with a black cross to zoom in, on the green button with a dash to zoom out, or on the green arrows for adjacent maps.


METAR-TAF: